createdAt,value
2023-04-29T00:00:27.491Z,22.68
2023-04-29T00:01:27.516Z,22.68
2023-04-29T00:02:28.621Z,22.67
2023-04-29T00:03:27.757Z,22.66
2023-04-29T00:04:27.644Z,22.66
2023-04-29T00:05:27.623Z,22.66
2023-04-29T00:06:27.497Z,22.65
2023-04-29T00:07:27.475Z,22.66
2023-04-29T00:08:27.467Z,22.66
2023-04-29T00:09:27.471Z,22.66
2023-04-29T00:10:27.465Z,22.65
2023-04-29T00:11:27.444Z,22.66
2023-04-29T00:12:27.436Z,22.64
2023-04-29T00:13:27.422Z,22.65
2023-04-29T00:14:27.414Z,22.65
2023-04-29T00:15:27.404Z,22.65
2023-04-29T00:16:27.430Z,22.65
2023-04-29T00:17:27.432Z,22.66
2023-04-29T00:18:27.400Z,22.66
2023-04-29T00:19:27.400Z,22.64
2023-04-29T00:20:27.392Z,22.65
2023-04-29T00:21:27.372Z,22.65
2023-04-29T00:22:27.356Z,22.63
2023-04-29T00:23:27.365Z,22.63
2023-04-29T00:24:27.369Z,22.65
2023-04-29T00:25:27.343Z,22.66
2023-04-29T00:26:27.335Z,22.66
2023-04-29T00:27:27.329Z,22.67
2023-04-29T00:28:27.337Z,22.67
2023-04-29T00:29:27.483Z,22.67
2023-04-29T00:30:27.299Z,22.67
2023-04-29T00:31:27.335Z,22.67
2023-04-29T00:32:27.327Z,22.66
2023-04-29T00:33:27.304Z,22.66
2023-04-29T00:34:27.288Z,22.65
2023-04-29T00:35:27.284Z,22.65
2023-04-29T00:36:27.261Z,22.64
2023-04-29T00:37:27.278Z,22.64
2023-04-29T00:38:27.241Z,22.63
2023-04-29T00:39:27.244Z,22.63
2023-04-29T00:40:27.250Z,22.63
2023-04-29T00:41:27.253Z,22.62
2023-04-29T00:42:27.211Z,22.62
2023-04-29T00:43:27.231Z,22.62
2023-04-29T00:44:27.197Z,22.63
2023-04-29T00:45:27.213Z,22.64
2023-04-29T00:46:27.235Z,22.65
2023-04-29T00:47:27.222Z,22.65
2023-04-29T00:48:27.181Z,22.65
2023-04-29T00:49:27.156Z,22.65
2023-04-29T00:50:27.173Z,22.66
2023-04-29T00:51:27.157Z,22.65
2023-04-29T00:52:27.152Z,22.65
2023-04-29T00:53:27.123Z,22.65
2023-04-29T00:54:27.142Z,22.64
2023-04-29T00:55:27.177Z,22.63
2023-04-29T00:56:27.225Z,22.62
2023-04-29T00:57:27.196Z,22.62
2023-04-29T00:58:27.224Z,22.60
2023-04-29T00:59:27.233Z,22.60
2023-04-29T01:00:27.255Z,22.60
2023-04-29T01:01:27.263Z,22.60
2023-04-29T01:02:27.310Z,22.60
2023-04-29T01:03:27.392Z,22.60
2023-04-29T01:04:27.391Z,22.60
2023-04-29T01:05:27.402Z,22.60
2023-04-29T01:06:27.394Z,22.60
2023-04-29T01:07:27.467Z,22.61
2023-04-29T01:08:27.569Z,22.61
2023-04-29T01:09:27.540Z,22.61
2023-04-29T01:10:27.615Z,22.60
2023-04-29T01:11:27.561Z,22.59
2023-04-29T01:12:27.608Z,22.59
2023-04-29T01:13:27.656Z,22.59
2023-04-29T01:14:27.696Z,22.58
2023-04-29T01:15:27.771Z,22.58
2023-04-29T01:16:27.825Z,22.58
2023-04-29T01:17:27.953Z,22.56
2023-04-29T01:18:27.880Z,22.55
2023-04-29T01:19:27.950Z,22.55
2023-04-29T01:20:27.993Z,22.54
2023-04-29T01:21:28.043Z,22.54
2023-04-29T01:22:28.085Z,22.53
2023-04-29T01:23:28.145Z,22.54
2023-04-29T01:24:28.204Z,22.54
2023-04-29T01:25:28.241Z,22.53
2023-04-29T01:26:28.215Z,22.53
2023-04-29T01:27:28.258Z,22.52
2023-04-29T01:28:28.312Z,22.53
2023-04-29T01:29:28.355Z,22.53
2023-04-29T01:30:28.400Z,22.53
2023-04-29T01:31:28.579Z,22.53
2023-04-29T01:32:28.468Z,22.53
2023-04-29T01:33:28.428Z,22.53
2023-04-29T01:34:28.463Z,22.52
2023-04-29T01:35:28.461Z,22.53
2023-04-29T01:36:28.502Z,22.54
2023-04-29T01:37:28.568Z,22.53
2023-04-29T01:38:28.600Z,22.55
2023-04-29T01:39:28.660Z,22.56
2023-04-29T01:40:28.684Z,22.56
2023-04-29T01:41:28.762Z,22.56
2023-04-29T01:42:28.774Z,22.56
2023-04-29T01:43:28.796Z,22.55
2023-04-29T01:44:28.821Z,22.55
2023-04-29T01:45:28.886Z,22.55
2023-04-29T01:46:28.952Z,22.55
2023-04-29T01:47:28.964Z,22.55
2023-04-29T01:48:28.993Z,22.55
2023-04-29T01:49:29.040Z,22.55
2023-04-29T01:50:29.094Z,22.54
2023-04-29T01:51:29.179Z,22.54
2023-04-29T01:52:29.176Z,22.54
2023-04-29T01:53:29.259Z,22.55
2023-04-29T01:54:29.277Z,22.55
2023-04-29T01:55:29.337Z,22.55
2023-04-29T01:56:29.357Z,22.54
2023-04-29T01:57:29.348Z,22.54
2023-04-29T01:58:29.353Z,22.55
2023-04-29T01:59:30.950Z,22.55
2023-04-29T02:00:29.420Z,22.55
2023-04-29T02:01:29.419Z,22.55
2023-04-29T02:02:29.537Z,22.56
2023-04-29T02:03:29.532Z,22.56
2023-04-29T02:04:29.459Z,22.55
2023-04-29T02:05:29.510Z,22.55
2023-04-29T02:06:29.464Z,22.55
2023-04-29T02:07:29.498Z,22.56
2023-04-29T02:08:29.569Z,22.55
2023-04-29T02:09:29.596Z,22.55
2023-04-29T02:10:29.658Z,22.55
2023-04-29T02:11:29.709Z,22.56
2023-04-29T02:12:29.722Z,22.56
2023-04-29T02:13:29.761Z,22.56
2023-04-29T02:14:29.814Z,22.56
2023-04-29T02:15:29.867Z,22.55
2023-04-29T02:16:29.963Z,22.56
2023-04-29T02:17:30.048Z,22.56
2023-04-29T02:18:29.961Z,22.56
2023-04-29T02:19:29.987Z,22.56
2023-04-29T02:20:30.006Z,22.57
2023-04-29T02:21:30.022Z,22.56
2023-04-29T02:22:30.030Z,22.57
2023-04-29T02:23:30.086Z,22.56
2023-04-29T02:24:30.147Z,22.56
2023-04-29T02:25:30.159Z,22.57
2023-04-29T02:26:30.187Z,22.57
2023-04-29T02:27:30.197Z,22.57
2023-04-29T02:28:30.265Z,22.57
2023-04-29T02:29:30.299Z,22.57
2023-04-29T02:30:30.361Z,22.57
2023-04-29T02:31:30.367Z,22.56
2023-04-29T02:32:30.373Z,22.57
2023-04-29T02:33:30.390Z,22.57
2023-04-29T02:34:30.383Z,22.56
2023-04-29T02:35:30.407Z,22.56
2023-04-29T02:36:30.435Z,22.56
2023-04-29T02:37:30.481Z,22.55
2023-04-29T02:38:30.493Z,22.55
2023-04-29T02:39:30.476Z,22.56
2023-04-29T02:40:30.503Z,22.56
2023-04-29T02:41:30.590Z,22.57
2023-04-29T02:42:30.611Z,22.57
2023-04-29T02:43:30.676Z,22.57
2023-04-29T02:44:30.718Z,22.56
2023-04-29T02:45:30.767Z,22.56
2023-04-29T02:46:30.806Z,22.56
2023-04-29T02:47:30.818Z,22.56
2023-04-29T02:48:30.824Z,22.55
2023-04-29T02:49:30.843Z,22.55
2023-04-29T02:50:30.825Z,22.56
2023-04-29T02:51:30.857Z,22.55
2023-04-29T02:52:30.863Z,22.56
2023-04-29T02:53:30.891Z,22.56
2023-04-29T02:54:30.930Z,22.56
2023-04-29T02:55:30.956Z,22.55
2023-04-29T02:56:30.959Z,22.56
2023-04-29T02:57:30.955Z,22.55
2023-04-29T02:58:30.955Z,22.55
2023-04-29T02:59:30.988Z,22.55
2023-04-29T03:00:31.015Z,22.55
2023-04-29T03:01:31.031Z,22.55
2023-04-29T03:02:31.071Z,22.55
2023-04-29T03:03:31.149Z,22.55
2023-04-29T03:04:31.072Z,22.55
2023-04-29T03:05:31.047Z,22.56
2023-04-29T03:06:31.046Z,22.55
2023-04-29T03:07:31.134Z,22.55
2023-04-29T03:08:31.152Z,22.55
2023-04-29T03:09:31.205Z,22.54
2023-04-29T03:10:31.272Z,22.54
2023-04-29T03:11:31.234Z,22.53
2023-04-29T03:12:31.274Z,22.53
2023-04-29T03:13:31.298Z,22.52
2023-04-29T03:14:31.370Z,22.52
2023-04-29T03:15:31.410Z,22.52
2023-04-29T03:16:31.432Z,22.52
2023-04-29T03:17:31.474Z,22.51
2023-04-29T03:18:31.481Z,22.51
2023-04-29T03:19:31.510Z,22.50
2023-04-29T03:20:31.557Z,22.50
2023-04-29T03:21:31.556Z,22.50
2023-04-29T03:22:31.590Z,22.50
2023-04-29T03:23:31.575Z,22.50
2023-04-29T03:24:31.612Z,22.49
2023-04-29T03:25:31.672Z,22.50
2023-04-29T03:26:31.686Z,22.50
2023-04-29T03:27:31.753Z,22.49
2023-04-29T03:28:31.801Z,22.50
2023-04-29T03:29:31.845Z,22.49
2023-04-29T03:30:31.862Z,22.50
2023-04-29T03:31:31.873Z,22.50
2023-04-29T03:32:31.935Z,22.50
2023-04-29T03:33:31.894Z,22.50
2023-04-29T03:34:31.924Z,22.50
2023-04-29T03:35:31.964Z,22.48
2023-04-29T03:36:31.953Z,22.49
2023-04-29T03:37:31.970Z,22.48
2023-04-29T03:38:32.011Z,22.49
2023-04-29T03:39:32.072Z,22.49
2023-04-29T03:40:32.127Z,22.47
2023-04-29T03:41:32.115Z,22.47
2023-04-29T03:42:32.121Z,22.46
2023-04-29T03:43:32.154Z,22.46
2023-04-29T03:44:32.240Z,22.45
2023-04-29T03:45:32.232Z,22.45
2023-04-29T03:46:32.324Z,22.45
2023-04-29T03:47:32.344Z,22.46
2023-04-29T03:48:32.342Z,22.46
2023-04-29T03:49:32.369Z,22.46
2023-04-29T03:50:32.453Z,22.46
2023-04-29T03:51:32.483Z,22.46
2023-04-29T03:52:32.528Z,22.46
2023-04-29T03:53:32.590Z,22.46
2023-04-29T03:54:32.659Z,22.47
2023-04-29T03:55:32.673Z,22.47
2023-04-29T03:56:32.720Z,22.47
2023-04-29T03:57:32.721Z,22.46
2023-04-29T03:58:32.758Z,22.47
2023-04-29T03:59:32.769Z,22.47
2023-04-29T04:00:32.805Z,22.47
2023-04-29T04:01:32.842Z,22.49
2023-04-29T04:02:32.973Z,22.50
2023-04-29T04:03:32.967Z,22.50
2023-04-29T04:04:33.089Z,22.50
2023-04-29T04:05:32.881Z,22.49
2023-04-29T04:06:32.900Z,22.49
2023-04-29T04:07:32.945Z,22.50
2023-04-29T04:08:32.948Z,22.49
2023-04-29T04:09:32.981Z,22.49
2023-04-29T04:10:32.999Z,22.49
2023-04-29T04:11:33.028Z,22.49
2023-04-29T04:12:33.081Z,22.49
2023-04-29T04:13:33.104Z,22.49
2023-04-29T04:14:33.110Z,22.49
2023-04-29T04:15:33.129Z,22.49
2023-04-29T04:16:33.347Z,22.50
2023-04-29T04:17:33.165Z,22.49
2023-04-29T04:18:33.111Z,22.49
2023-04-29T04:19:33.137Z,22.48
2023-04-29T04:20:33.170Z,22.47
2023-04-29T04:21:33.181Z,22.46
2023-04-29T04:22:33.183Z,22.46
2023-04-29T04:23:33.194Z,22.47
2023-04-29T04:24:33.223Z,22.47
2023-04-29T04:25:33.215Z,22.46
2023-04-29T04:26:33.217Z,22.46
2023-04-29T04:27:33.234Z,22.46
2023-04-29T04:28:33.264Z,22.45
2023-04-29T04:29:33.298Z,22.45
2023-04-29T04:30:33.285Z,22.44
2023-04-29T04:31:33.352Z,22.44
2023-04-29T04:32:33.431Z,22.44
2023-04-29T04:33:33.373Z,22.45
2023-04-29T04:34:33.414Z,22.45
2023-04-29T04:35:33.425Z,22.45
2023-04-29T04:36:33.445Z,22.44
2023-04-29T04:37:33.478Z,22.45
2023-04-29T04:38:33.475Z,22.45
2023-04-29T04:39:33.488Z,22.44
2023-04-29T04:40:33.543Z,22.44
2023-04-29T04:41:33.563Z,22.44
2023-04-29T04:42:33.616Z,22.44
2023-04-29T04:43:33.663Z,22.44
2023-04-29T04:44:33.765Z,22.45
2023-04-29T04:45:33.780Z,22.45
2023-04-29T04:46:33.746Z,22.44
2023-04-29T04:47:33.841Z,22.45
2023-04-29T04:48:33.841Z,22.45
2023-04-29T04:49:33.876Z,22.45
2023-04-29T04:50:33.902Z,22.45
2023-04-29T04:51:33.924Z,22.44
2023-04-29T04:52:33.958Z,22.44
2023-04-29T04:53:33.995Z,22.44
2023-04-29T04:54:34.012Z,22.44
2023-04-29T04:55:34.045Z,22.45
2023-04-29T04:56:34.056Z,22.45
2023-04-29T04:57:34.077Z,22.45
2023-04-29T04:58:34.071Z,22.46
2023-04-29T04:59:34.119Z,22.47
2023-04-29T05:00:34.121Z,22.46
2023-04-29T05:01:34.198Z,22.46
2023-04-29T05:02:34.347Z,22.47
2023-04-29T05:03:34.386Z,22.46
2023-04-29T05:04:34.247Z,22.45
2023-04-29T05:05:34.288Z,22.46
2023-04-29T05:06:34.334Z,22.46
2023-04-29T05:07:34.402Z,22.46
2023-04-29T05:08:34.418Z,22.45
2023-04-29T05:09:34.433Z,22.45
2023-04-29T05:10:34.468Z,22.45
2023-04-29T05:11:34.532Z,22.45
2023-04-29T05:12:34.573Z,22.46
2023-04-29T05:13:34.588Z,22.46
2023-04-29T05:14:34.629Z,22.47
2023-04-29T05:15:34.636Z,22.47
2023-04-29T05:16:34.732Z,22.47
2023-04-29T05:17:34.680Z,22.47
2023-04-29T05:18:34.697Z,22.46
2023-04-29T05:19:34.749Z,22.47
2023-04-29T05:20:34.800Z,22.47
2023-04-29T05:21:34.823Z,22.47
2023-04-29T05:22:34.868Z,22.47
2023-04-29T05:23:34.877Z,22.47
2023-04-29T05:24:34.891Z,22.49
2023-04-29T05:25:34.956Z,22.48
2023-04-29T05:26:35.025Z,22.48
2023-04-29T05:27:35.044Z,22.47
2023-04-29T05:28:35.090Z,22.47
2023-04-29T05:29:35.130Z,22.49
2023-04-29T05:30:35.192Z,22.47
2023-04-29T05:31:35.174Z,22.48
2023-04-29T05:32:35.230Z,22.48
2023-04-29T05:33:35.272Z,22.47
2023-04-29T05:34:35.276Z,22.48
2023-04-29T05:35:35.294Z,22.49
2023-04-29T05:36:35.313Z,22.48
2023-04-29T05:37:35.330Z,22.48
2023-04-29T05:38:35.380Z,22.49
2023-04-29T05:39:35.427Z,22.50
2023-04-29T05:40:35.525Z,22.50
2023-04-29T05:41:35.527Z,22.51
2023-04-29T05:42:35.599Z,22.50
2023-04-29T05:43:36.912Z,22.51
2023-04-29T05:44:35.624Z,22.52
2023-04-29T05:45:35.653Z,22.53
2023-04-29T05:46:35.731Z,22.53
2023-04-29T05:47:35.737Z,22.54
2023-04-29T05:48:35.751Z,22.55
2023-04-29T05:49:35.794Z,22.57
2023-04-29T05:50:35.813Z,22.58
2023-04-29T05:51:35.894Z,22.59
2023-04-29T05:52:35.915Z,22.61
2023-04-29T05:53:35.979Z,22.62
2023-04-29T05:54:36.001Z,22.62
2023-04-29T05:55:35.986Z,22.62
2023-04-29T05:56:35.999Z,22.63
2023-04-29T05:57:36.052Z,22.64
2023-04-29T05:58:36.084Z,22.65
2023-04-29T05:59:36.077Z,22.64
2023-04-29T06:00:36.166Z,22.65
2023-04-29T06:01:36.209Z,22.65
2023-04-29T06:02:41.495Z,22.66
2023-04-29T06:03:37.518Z,22.66
2023-04-29T06:04:36.427Z,22.67
2023-04-29T06:05:36.578Z,22.68
2023-04-29T06:06:36.261Z,22.68
2023-04-29T06:07:36.220Z,22.69
2023-04-29T06:08:36.208Z,22.70
2023-04-29T06:09:36.223Z,22.72
2023-04-29T06:10:36.202Z,22.74
2023-04-29T06:11:36.191Z,22.74
2023-04-29T06:12:36.177Z,22.77
2023-04-29T06:13:36.181Z,22.78
2023-04-29T06:14:36.158Z,22.79
2023-04-29T06:15:36.149Z,22.82
2023-04-29T06:16:36.293Z,22.85
2023-04-29T06:17:36.208Z,22.87
2023-04-29T06:18:36.219Z,22.87
2023-04-29T06:19:36.245Z,22.87
2023-04-29T06:20:37.578Z,22.88
2023-04-29T06:21:36.310Z,22.89
2023-04-29T06:22:36.377Z,22.90
2023-04-29T06:23:36.394Z,22.94
2023-04-29T06:24:36.427Z,22.99
2023-04-29T06:25:36.478Z,23.06
2023-04-29T06:26:36.520Z,23.11
2023-04-29T06:27:36.540Z,23.16
2023-04-29T06:28:36.612Z,23.20
2023-04-29T06:29:36.630Z,23.24
2023-04-29T06:30:36.667Z,23.25
2023-04-29T06:31:36.667Z,23.28
2023-04-29T06:32:36.661Z,23.30
2023-04-29T06:33:36.664Z,23.31
2023-04-29T06:34:36.692Z,23.31
2023-04-29T06:35:36.780Z,23.32
2023-04-29T06:36:36.796Z,23.32
2023-04-29T06:37:38.115Z,23.33
2023-04-29T06:38:36.899Z,23.35
2023-04-29T06:39:36.939Z,23.35
2023-04-29T06:40:36.979Z,23.37
2023-04-29T06:41:37.049Z,23.37
2023-04-29T06:42:37.063Z,23.39
2023-04-29T06:43:37.086Z,23.42
2023-04-29T06:44:37.142Z,23.48
2023-04-29T06:45:37.173Z,23.49
2023-04-29T06:46:37.258Z,23.53
2023-04-29T06:47:37.294Z,23.58
2023-04-29T06:48:37.292Z,23.64
2023-04-29T06:49:37.295Z,23.68
2023-04-29T06:50:37.323Z,23.72
2023-04-29T06:51:37.355Z,23.75
2023-04-29T06:52:37.375Z,23.78
2023-04-29T06:53:37.404Z,23.80
2023-04-29T06:54:37.417Z,23.86
2023-04-29T06:55:37.464Z,23.89
2023-04-29T06:56:37.492Z,23.94
2023-04-29T06:57:37.521Z,23.99
2023-04-29T06:58:37.546Z,24.05
2023-04-29T06:59:37.566Z,24.08
2023-04-29T07:00:37.629Z,24.13
2023-04-29T07:01:37.755Z,24.19
2023-04-29T07:02:37.711Z,24.25
2023-04-29T07:03:37.930Z,24.30
2023-04-29T07:04:37.785Z,24.33
2023-04-29T07:05:37.689Z,24.38
2023-04-29T07:06:37.712Z,24.45
2023-04-29T07:07:37.731Z,24.50
2023-04-29T07:08:37.750Z,24.54
2023-04-29T07:09:37.751Z,24.59
2023-04-29T07:10:37.739Z,24.64
2023-04-29T07:11:37.775Z,24.69
2023-04-29T07:12:37.809Z,24.73
2023-04-29T07:13:37.857Z,24.80
2023-04-29T07:14:37.860Z,24.85
2023-04-29T07:15:37.904Z,24.90
2023-04-29T07:16:37.970Z,24.96
2023-04-29T07:17:38.009Z,24.99
2023-04-29T07:18:37.979Z,24.99
2023-04-29T07:19:37.997Z,25.00
2023-04-29T07:20:38.101Z,25.02
2023-04-29T07:21:38.068Z,25.02
2023-04-29T07:22:38.104Z,25.03
2023-04-29T07:23:38.102Z,25.04
2023-04-29T07:24:38.121Z,25.08
2023-04-29T07:25:38.161Z,25.14
2023-04-29T07:26:38.181Z,25.18
2023-04-29T07:27:38.236Z,25.23
2023-04-29T07:28:38.234Z,25.25
2023-04-29T07:29:38.280Z,25.29
2023-04-29T07:30:38.343Z,25.33
2023-04-29T07:31:38.626Z,25.36
2023-04-29T07:32:38.385Z,25.37
2023-04-29T07:33:38.394Z,25.39
2023-04-29T07:34:38.408Z,25.39
2023-04-29T07:35:38.531Z,25.41
2023-04-29T07:36:38.538Z,25.45
2023-04-29T07:37:38.553Z,25.47
2023-04-29T07:38:38.569Z,25.49
2023-04-29T07:39:38.635Z,25.52
2023-04-29T07:40:38.679Z,25.54
2023-04-29T07:41:38.678Z,25.55
2023-04-29T07:42:38.681Z,25.57
2023-04-29T07:43:40.256Z,25.59
2023-04-29T07:44:38.697Z,25.62
2023-04-29T07:45:38.734Z,25.62
2023-04-29T07:46:38.826Z,25.60
2023-04-29T07:47:38.718Z,25.59
2023-04-29T07:48:38.679Z,25.60
2023-04-29T07:49:38.699Z,25.65
2023-04-29T07:50:38.686Z,25.68
2023-04-29T07:51:38.658Z,25.73
2023-04-29T07:52:38.649Z,25.77
2023-04-29T07:53:38.638Z,25.79
2023-04-29T07:54:38.634Z,25.84
2023-04-29T07:55:38.629Z,25.87
2023-04-29T07:56:38.588Z,25.90
2023-04-29T07:57:38.805Z,25.92
2023-04-29T07:58:38.601Z,25.96
2023-04-29T07:59:38.601Z,25.98
2023-04-29T08:00:38.585Z,26.00
2023-04-29T08:01:38.565Z,26.04
2023-04-29T08:02:38.686Z,26.07
2023-04-29T08:03:40.813Z,26.09
2023-04-29T08:04:38.659Z,26.12
2023-04-29T08:05:38.614Z,26.14
2023-04-29T08:06:38.532Z,26.17
2023-04-29T08:07:38.562Z,26.20
2023-04-29T08:08:38.533Z,26.22
2023-04-29T08:09:38.508Z,26.24
2023-04-29T08:10:38.538Z,26.26
2023-04-29T08:11:38.516Z,26.27
2023-04-29T08:12:38.518Z,26.29
2023-04-29T08:13:38.557Z,26.30
2023-04-29T08:14:38.489Z,26.30
2023-04-29T08:15:38.505Z,26.29
2023-04-29T08:16:38.507Z,26.30
2023-04-29T08:17:38.535Z,26.32
2023-04-29T08:18:38.460Z,26.35
2023-04-29T08:19:38.459Z,26.38
2023-04-29T08:20:38.499Z,26.40
2023-04-29T08:21:38.421Z,26.43
2023-04-29T08:22:38.433Z,26.47
2023-04-29T08:23:38.413Z,26.50
2023-04-29T08:24:38.425Z,26.52
2023-04-29T08:25:38.423Z,26.54
2023-04-29T08:26:38.403Z,26.57
2023-04-29T08:27:38.395Z,26.58
2023-04-29T08:28:38.394Z,26.59
2023-04-29T08:29:38.396Z,26.61
2023-04-29T08:30:38.383Z,26.63
2023-04-29T08:31:38.380Z,26.66
2023-04-29T08:32:38.365Z,26.68
2023-04-29T08:33:38.356Z,26.70
2023-04-29T08:34:38.347Z,26.71
2023-04-29T08:35:38.373Z,26.72
2023-04-29T08:36:38.333Z,26.73
2023-04-29T08:37:38.317Z,26.73
2023-04-29T08:38:38.316Z,26.76
2023-04-29T08:39:38.313Z,26.78
2023-04-29T08:40:38.314Z,26.78
2023-04-29T08:41:38.298Z,26.79
2023-04-29T08:42:38.274Z,26.81
2023-04-29T08:43:38.285Z,26.82
2023-04-29T08:44:38.258Z,26.84
2023-04-29T08:45:38.295Z,26.85
2023-04-29T08:46:38.268Z,26.87
2023-04-29T08:47:38.321Z,26.89
2023-04-29T08:48:38.613Z,26.92
2023-04-29T08:49:38.286Z,26.95
2023-04-29T08:50:38.209Z,26.95
2023-04-29T08:51:38.210Z,26.97
2023-04-29T08:52:38.211Z,27.00
2023-04-29T08:53:38.201Z,27.02
2023-04-29T08:54:38.214Z,27.02
2023-04-29T08:55:38.192Z,27.04
2023-04-29T08:56:38.172Z,27.05
2023-04-29T08:57:38.173Z,27.06
2023-04-29T08:58:38.171Z,27.06
2023-04-29T08:59:38.195Z,27.08
2023-04-29T09:00:38.176Z,27.09
2023-04-29T09:01:38.358Z,27.08
2023-04-29T09:02:38.262Z,27.08
2023-04-29T09:03:38.350Z,27.10
2023-04-29T09:04:38.367Z,27.10
2023-04-29T09:05:38.334Z,27.11
2023-04-29T09:06:38.400Z,27.08
2023-04-29T09:07:38.458Z,27.08
2023-04-29T09:08:38.499Z,27.07
2023-04-29T09:09:38.524Z,27.08
2023-04-29T09:10:38.571Z,27.09
2023-04-29T09:11:38.629Z,27.07
2023-04-29T09:12:38.623Z,27.06
2023-04-29T09:13:38.628Z,27.06
2023-04-29T09:14:38.656Z,27.08
2023-04-29T09:15:38.659Z,27.10
2023-04-29T09:16:38.671Z,27.11
2023-04-29T09:17:38.783Z,27.13
2023-04-29T09:18:38.656Z,27.14
2023-04-29T09:19:38.667Z,27.16
2023-04-29T09:20:38.703Z,27.17
2023-04-29T09:21:38.755Z,27.19
2023-04-29T09:22:38.818Z,27.18
2023-04-29T09:23:38.879Z,27.18
2023-04-29T09:24:38.882Z,27.18
2023-04-29T09:25:38.935Z,27.16
2023-04-29T09:26:38.967Z,27.13
2023-04-29T09:27:39.029Z,27.12
2023-04-29T09:28:39.077Z,27.11
2023-04-29T09:29:39.119Z,27.14
2023-04-29T09:30:39.160Z,27.15
2023-04-29T09:31:39.211Z,27.16
2023-04-29T09:32:39.509Z,27.17
2023-04-29T09:33:39.234Z,27.17
2023-04-29T09:34:39.276Z,27.18
2023-04-29T09:35:39.301Z,27.19
2023-04-29T09:36:39.336Z,27.21
2023-04-29T09:37:39.350Z,27.22
2023-04-29T09:38:39.391Z,27.22
2023-04-29T09:39:39.453Z,27.20
2023-04-29T09:40:56.791Z,27.19
2023-04-29T09:41:40.477Z,27.17
2023-04-29T09:42:39.484Z,27.18
2023-04-29T09:43:39.451Z,27.18
2023-04-29T09:44:39.488Z,27.19
2023-04-29T09:45:39.427Z,27.22
2023-04-29T09:46:39.502Z,27.23
2023-04-29T09:47:39.504Z,27.25
2023-04-29T09:48:39.417Z,27.27
2023-04-29T09:49:39.416Z,27.29
2023-04-29T09:50:39.420Z,27.31
2023-04-29T09:51:39.425Z,27.32
2023-04-29T09:52:39.404Z,27.34
2023-04-29T09:53:39.412Z,27.34
2023-04-29T09:54:39.367Z,27.34
2023-04-29T09:55:39.420Z,27.35
2023-04-29T09:56:39.445Z,27.37
2023-04-29T09:57:39.478Z,27.36
2023-04-29T09:58:39.502Z,27.36
2023-04-29T09:59:39.533Z,27.35
2023-04-29T10:00:39.557Z,27.36
2023-04-29T10:01:39.626Z,27.36
2023-04-29T10:02:39.739Z,27.37
2023-04-29T10:03:39.907Z,27.39
2023-04-29T10:04:40.266Z,27.41
2023-04-29T10:05:39.713Z,27.41
2023-04-29T10:06:39.748Z,27.41
2023-04-29T10:07:39.766Z,27.41
2023-04-29T10:08:39.799Z,27.42
2023-04-29T10:09:39.835Z,27.43
2023-04-29T10:10:39.864Z,27.45
2023-04-29T10:11:39.908Z,27.45
2023-04-29T10:12:39.933Z,27.46
2023-04-29T10:13:39.954Z,27.46
2023-04-29T10:14:39.989Z,27.48
2023-04-29T10:15:40.058Z,27.49
2023-04-29T10:16:40.059Z,27.48
2023-04-29T10:17:40.095Z,27.49
2023-04-29T10:18:40.156Z,27.50
2023-04-29T10:19:40.137Z,27.52
2023-04-29T10:20:40.145Z,27.53
2023-04-29T10:21:40.160Z,27.53
2023-04-29T10:22:40.183Z,27.53
2023-04-29T10:23:40.227Z,27.53
2023-04-29T10:24:40.226Z,27.54
2023-04-29T10:25:40.261Z,27.56
2023-04-29T10:26:40.281Z,27.57
2023-04-29T10:27:40.277Z,27.58
2023-04-29T10:28:40.338Z,27.60
2023-04-29T10:29:40.344Z,27.60
2023-04-29T10:30:40.361Z,27.60
2023-04-29T10:31:40.414Z,27.61
2023-04-29T10:32:50.352Z,27.60
2023-04-29T10:33:41.423Z,27.59
2023-04-29T10:34:40.375Z,27.60
2023-04-29T10:35:40.404Z,27.60
2023-04-29T10:36:40.357Z,27.59
2023-04-29T10:37:40.373Z,27.58
2023-04-29T10:38:40.402Z,27.56
2023-04-29T10:39:40.352Z,27.54
2023-04-29T10:40:40.345Z,27.53
2023-04-29T10:41:40.354Z,27.53
2023-04-29T10:42:40.338Z,27.54
2023-04-29T10:43:40.311Z,27.54
2023-04-29T10:44:40.322Z,27.52
2023-04-29T10:45:40.348Z,27.51
2023-04-29T10:46:40.359Z,27.50
2023-04-29T10:47:40.303Z,27.50
2023-04-29T10:48:40.277Z,27.51
2023-04-29T10:49:40.271Z,27.48
2023-04-29T10:50:40.312Z,27.45
2023-04-29T10:51:40.349Z,27.44
2023-04-29T10:52:40.360Z,27.43
2023-04-29T10:53:40.419Z,27.42
2023-04-29T10:54:40.427Z,27.41
2023-04-29T10:55:40.483Z,27.41
2023-04-29T10:56:40.516Z,27.42
2023-04-29T10:57:40.562Z,27.43
2023-04-29T10:58:40.566Z,27.42
2023-04-29T10:59:40.601Z,27.41
2023-04-29T11:00:40.703Z,27.39
2023-04-29T11:01:40.694Z,27.37
2023-04-29T11:02:40.872Z,27.37
2023-04-29T11:03:40.994Z,27.36
2023-04-29T11:04:40.817Z,27.36
2023-04-29T11:05:40.812Z,27.36
2023-04-29T11:06:40.897Z,27.36
2023-04-29T11:07:40.877Z,27.35
2023-04-29T11:08:40.932Z,27.34
2023-04-29T11:09:40.962Z,27.33
2023-04-29T11:10:40.991Z,27.32
2023-04-29T11:11:41.019Z,27.33
2023-04-29T11:12:41.015Z,27.32
2023-04-29T11:13:41.062Z,27.31
2023-04-29T11:14:41.123Z,27.31
2023-04-29T11:15:41.086Z,27.31
2023-04-29T11:16:41.204Z,27.30
2023-04-29T11:17:41.219Z,27.29
2023-04-29T11:18:41.184Z,27.28
2023-04-29T11:19:41.214Z,27.27
2023-04-29T11:20:41.280Z,27.26
2023-04-29T11:21:41.291Z,27.25
2023-04-29T11:22:41.392Z,27.24
2023-04-29T11:23:41.413Z,27.23
2023-04-29T11:24:41.411Z,27.22
2023-04-29T11:25:41.421Z,27.20
2023-04-29T11:26:41.429Z,27.19
2023-04-29T11:27:41.473Z,27.17
2023-04-29T11:28:41.483Z,27.17
2023-04-29T11:29:41.497Z,27.15
2023-04-29T11:30:41.548Z,27.13
2023-04-29T11:31:41.682Z,27.12
2023-04-29T11:32:41.725Z,27.10
2023-04-29T11:33:41.705Z,27.10
2023-04-29T11:34:41.762Z,27.09
2023-04-29T11:35:41.791Z,27.09
2023-04-29T11:36:41.860Z,27.07
2023-04-29T11:37:41.916Z,27.07
2023-04-29T11:38:41.946Z,27.07
2023-04-29T11:39:42.016Z,27.04
2023-04-29T11:40:42.010Z,27.03
2023-04-29T11:41:42.073Z,27.03
2023-04-29T11:42:42.095Z,27.02
2023-04-29T11:43:42.146Z,27.02
2023-04-29T11:44:42.194Z,27.04
2023-04-29T11:45:42.288Z,27.03
2023-04-29T11:46:42.334Z,27.04
2023-04-29T11:47:42.414Z,27.05
2023-04-29T11:48:42.514Z,27.05
2023-04-29T11:49:42.464Z,27.05
2023-04-29T11:50:42.532Z,27.05
2023-04-29T11:51:42.552Z,27.06
2023-04-29T11:52:42.632Z,27.06
2023-04-29T11:53:42.686Z,27.06
2023-04-29T11:54:42.697Z,27.06
2023-04-29T11:55:42.728Z,27.05
2023-04-29T11:56:42.724Z,27.05
2023-04-29T11:57:42.746Z,27.03
2023-04-29T11:58:42.814Z,27.04
2023-04-29T11:59:42.891Z,27.04
2023-04-29T12:00:42.932Z,27.04
2023-04-29T12:01:42.984Z,27.03
2023-04-29T12:02:43.137Z,27.02
2023-04-29T12:03:43.348Z,27.03
2023-04-29T12:04:43.328Z,27.05
2023-04-29T12:05:43.195Z,27.05
2023-04-29T12:06:43.189Z,27.03
2023-04-29T12:07:43.216Z,27.03
2023-04-29T12:08:43.187Z,27.02
2023-04-29T12:09:43.282Z,27.01
2023-04-29T12:10:43.237Z,27.00
2023-04-29T12:11:43.278Z,27.01
2023-04-29T12:12:43.275Z,26.98
2023-04-29T12:13:43.342Z,26.97
2023-04-29T12:14:43.352Z,26.98
2023-04-29T12:15:43.374Z,26.97
2023-04-29T12:16:43.400Z,26.96
2023-04-29T12:17:43.496Z,26.95
2023-04-29T12:18:43.459Z,26.95
2023-04-29T12:19:43.533Z,26.94
2023-04-29T12:20:43.562Z,26.94
2023-04-29T12:21:43.618Z,26.92
2023-04-29T12:22:43.734Z,26.90
2023-04-29T12:23:43.688Z,26.90
2023-04-29T12:24:43.726Z,26.90
2023-04-29T12:25:43.734Z,26.89
2023-04-29T12:26:43.794Z,26.90
2023-04-29T12:27:43.784Z,26.91
2023-04-29T12:28:43.849Z,26.91
2023-04-29T12:29:43.889Z,26.91
2023-04-29T12:30:43.936Z,26.90
2023-04-29T12:31:44.027Z,26.90
2023-04-29T12:32:44.024Z,26.91
2023-04-29T12:33:44.041Z,26.92
2023-04-29T12:34:44.019Z,26.92
2023-04-29T12:35:44.051Z,26.90
2023-04-29T12:36:44.091Z,26.91
2023-04-29T12:37:44.128Z,26.91
2023-04-29T12:38:44.158Z,26.93
2023-04-29T12:39:44.201Z,26.93
2023-04-29T12:40:44.246Z,26.94
2023-04-29T12:41:44.308Z,26.92
2023-04-29T12:42:44.329Z,26.91
2023-04-29T12:43:44.371Z,26.91
2023-04-29T12:44:44.465Z,26.91
2023-04-29T12:45:44.438Z,26.91
2023-04-29T12:46:44.488Z,26.94
2023-04-29T12:47:44.537Z,26.95
2023-04-29T12:48:44.536Z,26.96
2023-04-29T12:49:44.553Z,26.94
2023-04-29T12:50:44.602Z,26.93
2023-04-29T12:51:44.669Z,26.91
2023-04-29T12:52:44.670Z,26.91